1172-й км

Карта отелей и гостиниц, располагающихся рядом с аэропортом 1172-й км :

1172-й км Свердловская область 61° 4' 6.1284" N, 61° 19' 15.69" E
1172-й км Свердловская область 61° 4' 6.1284" N, 61° 19' 15.69" E
Код аэродрома ИКАО
HDV2
Код аэродрома RU
ХДЖ2
Координаты
N61.06837° E061.32102°
Превышение над уровнем моря
120
Основная полоса
36/18
Курс магнитный
358,8/178,8
Длина основной ВПП
22
Ширина основной ВПП
20
Покрытие основной ВПП
Твёрдое
Освещение ВПП
Нет
Тип: 
Вертодром
Класс аэродрома: 
Принадлежность: 
ГА
Статус: 
Действующий
Сайт: 
E-mail аэродрома: 
Страна: 
Россия
Регион: 
Свердловская область
Город: 
Дополнительная информация: 
Владелец ПП: нет данных.


Найти трансфер

С помощью этой формы Вы можете найти трансфер из аэропорта 1172-й км в город, аэропорт или вокзал:

Погода в аэропортах:

Авиационная погода в Актобе

Регион: 
Погода METAR: 
UATT 212300Z 29009MPS 9000 -RA BKN008 OVC036 06/04 Q1003 NOSIG RMK QFE733/0977
Время наблюдения
2022-05-21T23:00:00Z
Температура C
6.0
Точка росы
4.0
Направление ветра
290
Скорость ветра (узлы)
17
Метео видимость
5.59
Облачность
BKN
OVC
Нижняя граница облачности (футы)
800
3600
Явления погоды
-RA
Условия полета
IFR
Аэропорт подробнее: 
BKN – значительная (рассеянная, разорванная) облачность; OVC – сплошная облачность;
-RA - слабый дождь;

Авиационная погода в Екатеринбурге

Регион: 
Погода METAR: 
USSS 212300Z 30007MPS 9999 -SHRA OVC007CB 03/02 Q0991 R26R/290335 NOSIG RMK QFE723/0964
Время наблюдения
2022-05-21T23:00:00Z
Температура C
3.0
Точка росы
2.0
Направление ветра
300
Скорость ветра (узлы)
14
Метео видимость
6.21
Облачность
OVC
Нижняя граница облачности (футы)
700
Явления погоды
-SHRA
Условия полета
IFR
Аэропорт подробнее: 
OVC – сплошная облачность;
-SHRA - слабый ливневой дождь;

Авиационная погода в Минске

Регион: 
Погода METAR: 
UMMS 212300Z 26002MPS 240V310 6000 -RA BKN003 OVC016 09/09 Q0998 NOSIG RMK QBB110
Время наблюдения
2022-05-21T23:00:00Z
Температура C
9.0
Точка росы
9.0
Направление ветра
260
Скорость ветра (узлы)
4
Метео видимость
3.73
Облачность
BKN
OVC
Нижняя граница облачности (футы)
300
1600
Явления погоды
-RA
Условия полета
LIFR
Аэропорт подробнее: 
BKN – значительная (рассеянная, разорванная) облачность; OVC – сплошная облачность;
-RA - слабый дождь;

Авиационная погода в Храброво

Регион: 
Погода METAR: 
UMKK 212300Z 29009MPS 9000 -RA BKN005 OVC017 09/09 Q1007 R24/290095 NOSIG RMK QBB150 OBST OBSC QFE754/1005
Время наблюдения
2022-05-21T23:00:00Z
Температура C
9.0
Точка росы
9.0
Направление ветра
290
Скорость ветра (узлы)
17
Метео видимость
5.59
Облачность
BKN
OVC
Нижняя граница облачности (футы)
500
1700
Явления погоды
-RA
Условия полета
IFR
Аэропорт подробнее: 
BKN – значительная (рассеянная, разорванная) облачность; OVC – сплошная облачность;
-RA - слабый дождь;